sensor_id;sensor_type;location;lat;lon;timestamp;P1;durP1;ratioP1;P2;durP2;ratioP2
7213;SDS011;3648;50.614;13.830;2023-03-16T00:00:31;8.77;;;5.30;;
7213;SDS011;3648;50.614;13.830;2023-03-16T00:02:58;9.23;;;6.20;;
7213;SDS011;3648;50.614;13.830;2023-03-16T00:05:26;7.37;;;6.47;;
7213;SDS011;3648;50.614;13.830;2023-03-16T00:07:53;12.47;;;6.57;;
7213;SDS011;3648;50.614;13.830;2023-03-16T00:10:20;12.20;;;7.33;;
7213;SDS011;3648;50.614;13.830;2023-03-16T00:12:51;10.17;;;6.70;;
7213;SDS011;3648;50.614;13.830;2023-03-16T00:15:18;9.20;;;6.50;;
7213;SDS011;3648;50.614;13.830;2023-03-16T00:17:45;7.97;;;6.17;;
7213;SDS011;3648;50.614;13.830;2023-03-16T00:20:13;9.47;;;6.60;;
7213;SDS011;3648;50.614;13.830;2023-03-16T00:22:42;8.80;;;6.83;;
7213;SDS011;3648;50.614;13.830;2023-03-16T00:25:10;10.07;;;7.60;;
7213;SDS011;3648;50.614;13.830;2023-03-16T00:27:39;8.90;;;6.47;;
7213;SDS011;3648;50.614;13.830;2023-03-16T00:30:07;10.07;;;6.50;;
7213;SDS011;3648;50.614;13.830;2023-03-16T00:32:36;9.33;;;6.70;;
7213;SDS011;3648;50.614;13.830;2023-03-16T00:35:03;9.90;;;6.57;;
7213;SDS011;3648;50.614;13.830;2023-03-16T00:37:31;8.20;;;6.57;;
7213;SDS011;3648;50.614;13.830;2023-03-16T00:40:00;12.83;;;7.07;;
7213;SDS011;3648;50.614;13.830;2023-03-16T00:42:28;8.70;;;6.33;;
7213;SDS011;3648;50.614;13.830;2023-03-16T00:44:58;8.17;;;6.47;;
7213;SDS011;3648;50.614;13.830;2023-03-16T00:47:27;10.97;;;7.00;;
7213;SDS011;3648;50.614;13.830;2023-03-16T00:49:54;9.53;;;6.07;;
7213;SDS011;3648;50.614;13.830;2023-03-16T00:52:22;9.33;;;6.90;;
7213;SDS011;3648;50.614;13.830;2023-03-16T00:54:49;8.07;;;5.73;;
7213;SDS011;3648;50.614;13.830;2023-03-16T00:57:19;7.00;;;5.87;;
7213;SDS011;3648;50.614;13.830;2023-03-16T00:59:49;8.57;;;6.50;;
7213;SDS011;3648;50.614;13.830;2023-03-16T01:02:17;8.70;;;5.83;;
7213;SDS011;3648;50.614;13.830;2023-03-16T01:04:47;8.63;;;6.10;;
7213;SDS011;3648;50.614;13.830;2023-03-16T01:07:15;10.27;;;6.47;;
7213;SDS011;3648;50.614;13.830;2023-03-16T01:09:42;8.90;;;6.60;;
7213;SDS011;3648;50.614;13.830;2023-03-16T01:12:11;9.43;;;7.27;;
7213;SDS011;3648;50.614;13.830;2023-03-16T01:14:41;9.47;;;7.00;;
7213;SDS011;3648;50.614;13.830;2023-03-16T01:17:10;10.60;;;7.13;;
7213;SDS011;3648;50.614;13.830;2023-03-16T01:19:37;12.90;;;8.53;;
7213;SDS011;3648;50.614;13.830;2023-03-16T01:22:05;12.37;;;8.63;;
7213;SDS011;3648;50.614;13.830;2023-03-16T01:24:33;11.73;;;8.50;;
7213;SDS011;3648;50.614;13.830;2023-03-16T01:27:01;13.47;;;7.90;;
7213;SDS011;3648;50.614;13.830;2023-03-16T01:29:29;11.60;;;7.13;;
7213;SDS011;3648;50.614;13.830;2023-03-16T01:31:58;12.17;;;7.93;;
7213;SDS011;3648;50.614;13.830;2023-03-16T01:34:26;11.70;;;7.03;;
7213;SDS011;3648;50.614;13.830;2023-03-16T01:36:53;11.07;;;7.93;;
7213;SDS011;3648;50.614;13.830;2023-03-16T01:39:20;12.73;;;7.97;;
7213;SDS011;3648;50.614;13.830;2023-03-16T01:41:47;13.93;;;7.93;;
7213;SDS011;3648;50.614;13.830;2023-03-16T01:44:15;10.00;;;7.63;;
7213;SDS011;3648;50.614;13.830;2023-03-16T01:46:44;10.73;;;6.93;;
7213;SDS011;3648;50.614;13.830;2023-03-16T01:49:13;11.47;;;7.40;;
7213;SDS011;3648;50.614;13.830;2023-03-16T01:51:44;15.30;;;9.00;;
7213;SDS011;3648;50.614;13.830;2023-03-16T01:54:19;14.90;;;8.53;;
7213;SDS011;3648;50.614;13.830;2023-03-16T01:56:51;14.50;;;9.83;;
7213;SDS011;3648;50.614;13.830;2023-03-16T01:59:24;14.57;;;8.63;;
7213;SDS011;3648;50.614;13.830;2023-03-16T02:01:55;12.80;;;7.73;;
7213;SDS011;3648;50.614;13.830;2023-03-16T02:04:28;11.50;;;8.20;;
7213;SDS011;3648;50.614;13.830;2023-03-16T02:07:02;19.13;;;8.90;;
7213;SDS011;3648;50.614;13.830;2023-03-16T02:09:30;12.77;;;8.30;;
7213;SDS011;3648;50.614;13.830;2023-03-16T02:11:58;12.63;;;7.90;;
7213;SDS011;3648;50.614;13.830;2023-03-16T02:14:26;13.43;;;8.10;;
7213;SDS011;3648;50.614;13.830;2023-03-16T02:16:53;15.73;;;8.00;;
7213;SDS011;3648;50.614;13.830;2023-03-16T02:19:22;21.30;;;9.17;;
7213;SDS011;3648;50.614;13.830;2023-03-16T02:22:01;13.70;;;8.43;;
7213;SDS011;3648;50.614;13.830;2023-03-16T02:24:30;16.40;;;8.67;;
7213;SDS011;3648;50.614;13.830;2023-03-16T02:26:58;16.63;;;9.50;;
7213;SDS011;3648;50.614;13.830;2023-03-16T02:32:26;12.67;;;7.50;;
7213;SDS011;3648;50.614;13.830;2023-03-16T02:34:55;10.90;;;8.30;;
7213;SDS011;3648;50.614;13.830;2023-03-16T02:37:24;10.83;;;7.80;;
7213;SDS011;3648;50.614;13.830;2023-03-16T02:39:51;10.73;;;7.47;;
7213;SDS011;3648;50.614;13.830;2023-03-16T02:42:19;11.73;;;7.13;;
7213;SDS011;3648;50.614;13.830;2023-03-16T02:44:49;11.87;;;7.47;;
7213;SDS011;3648;50.614;13.830;2023-03-16T02:47:23;11.57;;;7.17;;
7213;SDS011;3648;50.614;13.830;2023-03-16T02:49:55;10.13;;;7.63;;
7213;SDS011;3648;50.614;13.830;2023-03-16T02:52:22;13.20;;;7.77;;
7213;SDS011;3648;50.614;13.830;2023-03-16T02:54:49;13.33;;;8.63;;
7213;SDS011;3648;50.614;13.830;2023-03-16T02:57:16;13.63;;;8.37;;
7213;SDS011;3648;50.614;13.830;2023-03-16T02:59:43;12.83;;;7.27;;
7213;SDS011;3648;50.614;13.830;2023-03-16T03:02:10;13.57;;;7.80;;
7213;SDS011;3648;50.614;13.830;2023-03-16T03:04:38;7.23;;;6.30;;
7213;SDS011;3648;50.614;13.830;2023-03-16T03:07:06;11.20;;;7.07;;
7213;SDS011;3648;50.614;13.830;2023-03-16T03:09:33;8.93;;;6.37;;
7213;SDS011;3648;50.614;13.830;2023-03-16T03:12:00;9.57;;;7.53;;
7213;SDS011;3648;50.614;13.830;2023-03-16T03:14:27;12.80;;;7.67;;
7213;SDS011;3648;50.614;13.830;2023-03-16T03:16:54;8.40;;;7.37;;
7213;SDS011;3648;50.614;13.830;2023-03-16T03:19:21;11.13;;;7.07;;
7213;SDS011;3648;50.614;13.830;2023-03-16T03:21:50;8.50;;;6.47;;
7213;SDS011;3648;50.614;13.830;2023-03-16T03:24:20;9.97;;;7.07;;
7213;SDS011;3648;50.614;13.830;2023-03-16T03:26:48;9.53;;;7.10;;
7213;SDS011;3648;50.614;13.830;2023-03-16T03:29:16;9.87;;;6.47;;
7213;SDS011;3648;50.614;13.830;2023-03-16T03:31:43;10.87;;;7.33;;
7213;SDS011;3648;50.614;13.830;2023-03-16T03:34:10;8.80;;;6.90;;
7213;SDS011;3648;50.614;13.830;2023-03-16T03:36:37;10.47;;;6.37;;
7213;SDS011;3648;50.614;13.830;2023-03-16T03:39:05;9.70;;;6.53;;
7213;SDS011;3648;50.614;13.830;2023-03-16T03:41:32;8.30;;;6.63;;
7213;SDS011;3648;50.614;13.830;2023-03-16T03:44:00;9.07;;;6.33;;
7213;SDS011;3648;50.614;13.830;2023-03-16T03:46:27;8.50;;;6.27;;
7213;SDS011;3648;50.614;13.830;2023-03-16T03:48:53;8.27;;;6.47;;
7213;SDS011;3648;50.614;13.830;2023-03-16T03:51:25;9.67;;;5.70;;
7213;SDS011;3648;50.614;13.830;2023-03-16T03:53:52;6.20;;;5.60;;
7213;SDS011;3648;50.614;13.830;2023-03-16T03:56:20;10.40;;;6.17;;
7213;SDS011;3648;50.614;13.830;2023-03-16T03:58:47;8.77;;;6.43;;
7213;SDS011;3648;50.614;13.830;2023-03-16T04:01:14;11.17;;;6.43;;
7213;SDS011;3648;50.614;13.830;2023-03-16T04:03:42;8.87;;;6.03;;
7213;SDS011;3648;50.614;13.830;2023-03-16T04:06:09;9.47;;;6.53;;
7213;SDS011;3648;50.614;13.830;2023-03-16T04:08:36;10.43;;;6.27;;
7213;SDS011;3648;50.614;13.830;2023-03-16T04:11:03;9.50;;;6.90;;
7213;SDS011;3648;50.614;13.830;2023-03-16T04:13:31;9.13;;;6.23;;
7213;SDS011;3648;50.614;13.830;2023-03-16T04:15:59;8.97;;;6.33;;
7213;SDS011;3648;50.614;13.830;2023-03-16T04:18:27;13.10;;;6.43;;
7213;SDS011;3648;50.614;13.830;2023-03-16T04:20:54;9.57;;;7.10;;
7213;SDS011;3648;50.614;13.830;2023-03-16T04:23:21;9.10;;;7.07;;
7213;SDS011;3648;50.614;13.830;2023-03-16T04:25:49;10.47;;;6.73;;
7213;SDS011;3648;50.614;13.830;2023-03-16T04:28:16;11.53;;;6.50;;
7213;SDS011;3648;50.614;13.830;2023-03-16T04:30:45;9.97;;;6.57;;
7213;SDS011;3648;50.614;13.830;2023-03-16T04:33:12;9.23;;;6.60;;
7213;SDS011;3648;50.614;13.830;2023-03-16T04:35:39;8.73;;;6.50;;
7213;SDS011;3648;50.614;13.830;2023-03-16T04:38:06;13.07;;;7.73;;
7213;SDS011;3648;50.614;13.830;2023-03-16T04:40:34;16.50;;;10.87;;
7213;SDS011;3648;50.614;13.830;2023-03-16T04:43:01;34.77;;;17.97;;
7213;SDS011;3648;50.614;13.830;2023-03-16T04:45:28;51.27;;;27.83;;
7213;SDS011;3648;50.614;13.830;2023-03-16T04:47:58;31.77;;;18.60;;
7213;SDS011;3648;50.614;13.830;2023-03-16T04:50:25;18.53;;;13.27;;
7213;SDS011;3648;50.614;13.830;2023-03-16T04:52:52;22.23;;;12.70;;
7213;SDS011;3648;50.614;13.830;2023-03-16T04:55:19;21.73;;;14.30;;
7213;SDS011;3648;50.614;13.830;2023-03-16T04:57:47;20.07;;;13.13;;
7213;SDS011;3648;50.614;13.830;2023-03-16T05:00:14;16.43;;;12.40;;
7213;SDS011;3648;50.614;13.830;2023-03-16T05:02:43;17.20;;;11.87;;
7213;SDS011;3648;50.614;13.830;2023-03-16T05:05:12;16.60;;;12.33;;
7213;SDS011;3648;50.614;13.830;2023-03-16T05:07:40;17.43;;;11.60;;
7213;SDS011;3648;50.614;13.830;2023-03-16T05:10:07;23.93;;;16.23;;
7213;SDS011;3648;50.614;13.830;2023-03-16T05:12:35;31.63;;;20.60;;
7213;SDS011;3648;50.614;13.830;2023-03-16T05:15:03;21.60;;;13.60;;
7213;SDS011;3648;50.614;13.830;2023-03-16T05:17:31;21.77;;;13.70;;
7213;SDS011;3648;50.614;13.830;2023-03-16T05:19:59;17.87;;;13.23;;
7213;SDS011;3648;50.614;13.830;2023-03-16T05:22:28;16.07;;;11.40;;
7213;SDS011;3648;50.614;13.830;2023-03-16T05:24:55;17.00;;;11.30;;
7213;SDS011;3648;50.614;13.830;2023-03-16T05:27:22;14.40;;;10.23;;
7213;SDS011;3648;50.614;13.830;2023-03-16T05:29:49;15.30;;;10.30;;
7213;SDS011;3648;50.614;13.830;2023-03-16T05:32:16;19.00;;;11.50;;
7213;SDS011;3648;50.614;13.830;2023-03-16T05:34:44;14.57;;;10.67;;
7213;SDS011;3648;50.614;13.830;2023-03-16T05:37:11;16.77;;;9.43;;
7213;SDS011;3648;50.614;13.830;2023-03-16T05:39:39;14.17;;;10.00;;
7213;SDS011;3648;50.614;13.830;2023-03-16T05:42:07;13.20;;;9.87;;
7213;SDS011;3648;50.614;13.830;2023-03-16T05:44:34;17.93;;;9.43;;
7213;SDS011;3648;50.614;13.830;2023-03-16T05:47:01;14.57;;;8.90;;
7213;SDS011;3648;50.614;13.830;2023-03-16T05:49:28;12.70;;;9.50;;
7213;SDS011;3648;50.614;13.830;2023-03-16T05:51:55;12.57;;;8.83;;
7213;SDS011;3648;50.614;13.830;2023-03-16T05:54:23;17.00;;;9.13;;
7213;SDS011;3648;50.614;13.830;2023-03-16T05:56:51;12.97;;;8.63;;
7213;SDS011;3648;50.614;13.830;2023-03-16T05:59:18;14.17;;;9.30;;
7213;SDS011;3648;50.614;13.830;2023-03-16T06:01:45;13.20;;;9.47;;
7213;SDS011;3648;50.614;13.830;2023-03-16T06:04:14;12.27;;;9.27;;
7213;SDS011;3648;50.614;13.830;2023-03-16T06:06:41;13.83;;;9.10;;
7213;SDS011;3648;50.614;13.830;2023-03-16T06:09:08;12.53;;;10.40;;
7213;SDS011;3648;50.614;13.830;2023-03-16T06:11:35;13.53;;;9.60;;
7213;SDS011;3648;50.614;13.830;2023-03-16T06:14:04;12.87;;;9.00;;
7213;SDS011;3648;50.614;13.830;2023-03-16T06:16:30;13.77;;;8.77;;
7213;SDS011;3648;50.614;13.830;2023-03-16T06:18:57;9.27;;;8.13;;
7213;SDS011;3648;50.614;13.830;2023-03-16T06:21:25;13.30;;;8.93;;
7213;SDS011;3648;50.614;13.830;2023-03-16T06:23:52;11.90;;;8.77;;
7213;SDS011;3648;50.614;13.830;2023-03-16T06:26:20;15.23;;;9.20;;
7213;SDS011;3648;50.614;13.830;2023-03-16T06:28:47;15.37;;;9.60;;
7213;SDS011;3648;50.614;13.830;2023-03-16T06:31:15;12.93;;;8.37;;
7213;SDS011;3648;50.614;13.830;2023-03-16T06:33:42;11.80;;;8.73;;
7213;SDS011;3648;50.614;13.830;2023-03-16T06:36:09;12.90;;;8.47;;
7213;SDS011;3648;50.614;13.830;2023-03-16T06:38:36;11.47;;;8.17;;
7213;SDS011;3648;50.614;13.830;2023-03-16T06:41:03;12.20;;;9.30;;
7213;SDS011;3648;50.614;13.830;2023-03-16T06:43:30;13.13;;;8.90;;
7213;SDS011;3648;50.614;13.830;2023-03-16T06:45:57;11.03;;;8.93;;
7213;SDS011;3648;50.614;13.830;2023-03-16T06:48:26;18.20;;;9.40;;
7213;SDS011;3648;50.614;13.830;2023-03-16T06:50:54;19.07;;;10.47;;
7213;SDS011;3648;50.614;13.830;2023-03-16T06:53:20;15.57;;;9.33;;
7213;SDS011;3648;50.614;13.830;2023-03-16T06:55:47;15.83;;;10.03;;
7213;SDS011;3648;50.614;13.830;2023-03-16T06:58:15;17.07;;;10.57;;
7213;SDS011;3648;50.614;13.830;2023-03-16T07:00:42;16.53;;;10.10;;
7213;SDS011;3648;50.614;13.830;2023-03-16T07:03:09;17.70;;;11.17;;
7213;SDS011;3648;50.614;13.830;2023-03-16T07:05:38;16.53;;;10.40;;
7213;SDS011;3648;50.614;13.830;2023-03-16T07:08:05;12.67;;;9.47;;
7213;SDS011;3648;50.614;13.830;2023-03-16T07:10:32;12.67;;;8.57;;
7213;SDS011;3648;50.614;13.830;2023-03-16T07:12:59;14.63;;;9.53;;
7213;SDS011;3648;50.614;13.830;2023-03-16T07:15:26;13.37;;;9.27;;
7213;SDS011;3648;50.614;13.830;2023-03-16T07:17:53;15.80;;;9.37;;
7213;SDS011;3648;50.614;13.830;2023-03-16T07:20:20;17.30;;;10.10;;
7213;SDS011;3648;50.614;13.830;2023-03-16T07:22:48;13.03;;;7.87;;
7213;SDS011;3648;50.614;13.830;2023-03-16T07:25:16;11.33;;;8.97;;
7213;SDS011;3648;50.614;13.830;2023-03-16T07:27:43;17.47;;;10.57;;
7213;SDS011;3648;50.614;13.830;2023-03-16T07:30:11;10.53;;;8.53;;
7213;SDS011;3648;50.614;13.830;2023-03-16T07:32:39;12.47;;;8.57;;
7213;SDS011;3648;50.614;13.830;2023-03-16T07:35:07;10.77;;;7.50;;
7213;SDS011;3648;50.614;13.830;2023-03-16T07:37:35;16.67;;;8.73;;
7213;SDS011;3648;50.614;13.830;2023-03-16T07:40:04;9.07;;;7.37;;
7213;SDS011;3648;50.614;13.830;2023-03-16T07:42:33;14.13;;;7.90;;
7213;SDS011;3648;50.614;13.830;2023-03-16T07:45:00;13.77;;;9.37;;
7213;SDS011;3648;50.614;13.830;2023-03-16T07:47:27;21.27;;;11.97;;
7213;SDS011;3648;50.614;13.830;2023-03-16T07:49:55;15.93;;;10.33;;
7213;SDS011;3648;50.614;13.830;2023-03-16T07:52:22;14.27;;;9.00;;
7213;SDS011;3648;50.614;13.830;2023-03-16T07:54:49;11.73;;;8.90;;
7213;SDS011;3648;50.614;13.830;2023-03-16T07:57:18;17.47;;;11.10;;
7213;SDS011;3648;50.614;13.830;2023-03-16T07:59:45;11.43;;;8.10;;
7213;SDS011;3648;50.614;13.830;2023-03-16T08:02:12;10.27;;;7.10;;
7213;SDS011;3648;50.614;13.830;2023-03-16T08:04:41;10.53;;;7.00;;
7213;SDS011;3648;50.614;13.830;2023-03-16T08:07:08;11.27;;;6.90;;
7213;SDS011;3648;50.614;13.830;2023-03-16T08:09:36;11.53;;;8.23;;
7213;SDS011;3648;50.614;13.830;2023-03-16T08:12:03;8.83;;;6.63;;
7213;SDS011;3648;50.614;13.830;2023-03-16T08:14:32;7.63;;;5.77;;
7213;SDS011;3648;50.614;13.830;2023-03-16T08:17:01;8.73;;;5.60;;
7213;SDS011;3648;50.614;13.830;2023-03-16T08:19:29;10.43;;;5.93;;
7213;SDS011;3648;50.614;13.830;2023-03-16T08:21:56;13.20;;;8.07;;
7213;SDS011;3648;50.614;13.830;2023-03-16T08:24:25;10.90;;;6.67;;
7213;SDS011;3648;50.614;13.830;2023-03-16T08:26:53;9.30;;;6.70;;
7213;SDS011;3648;50.614;13.830;2023-03-16T08:29:21;11.17;;;7.87;;
7213;SDS011;3648;50.614;13.830;2023-03-16T08:31:50;9.20;;;6.30;;
7213;SDS011;3648;50.614;13.830;2023-03-16T08:34:18;7.93;;;5.07;;
7213;SDS011;3648;50.614;13.830;2023-03-16T08:36:45;7.33;;;5.67;;
7213;SDS011;3648;50.614;13.830;2023-03-16T08:39:12;8.20;;;4.70;;
7213;SDS011;3648;50.614;13.830;2023-03-16T08:41:40;11.57;;;6.47;;
7213;SDS011;3648;50.614;13.830;2023-03-16T08:44:07;8.23;;;5.50;;
7213;SDS011;3648;50.614;13.830;2023-03-16T08:46:35;8.37;;;4.50;;
7213;SDS011;3648;50.614;13.830;2023-03-16T08:49:03;6.47;;;4.40;;
7213;SDS011;3648;50.614;13.830;2023-03-16T08:51:30;6.83;;;4.40;;
7213;SDS011;3648;50.614;13.830;2023-03-16T08:53:58;5.20;;;4.00;;
7213;SDS011;3648;50.614;13.830;2023-03-16T08:56:25;8.17;;;4.43;;
7213;SDS011;3648;50.614;13.830;2023-03-16T08:58:52;7.23;;;4.80;;
7213;SDS011;3648;50.614;13.830;2023-03-16T09:01:19;7.97;;;4.70;;
7213;SDS011;3648;50.614;13.830;2023-03-16T09:03:47;7.67;;;4.50;;
7213;SDS011;3648;50.614;13.830;2023-03-16T09:06:16;8.30;;;4.43;;
7213;SDS011;3648;50.614;13.830;2023-03-16T09:08:44;8.87;;;5.27;;
7213;SDS011;3648;50.614;13.830;2023-03-16T09:11:12;7.93;;;5.57;;
7213;SDS011;3648;50.614;13.830;2023-03-16T09:13:40;9.37;;;6.10;;
7213;SDS011;3648;50.614;13.830;2023-03-16T09:16:08;7.10;;;4.90;;
7213;SDS011;3648;50.614;13.830;2023-03-16T09:18:37;8.57;;;5.27;;
7213;SDS011;3648;50.614;13.830;2023-03-16T09:21:05;10.03;;;6.77;;
7213;SDS011;3648;50.614;13.830;2023-03-16T09:23:35;11.73;;;7.07;;
7213;SDS011;3648;50.614;13.830;2023-03-16T09:26:03;9.37;;;6.47;;
7213;SDS011;3648;50.614;13.830;2023-03-16T09:28:31;10.97;;;6.33;;
7213;SDS011;3648;50.614;13.830;2023-03-16T09:31:00;10.97;;;5.97;;
7213;SDS011;3648;50.614;13.830;2023-03-16T09:33:29;13.03;;;6.63;;
7213;SDS011;3648;50.614;13.830;2023-03-16T09:35:58;8.63;;;5.30;;
7213;SDS011;3648;50.614;13.830;2023-03-16T09:38:26;8.50;;;5.80;;
7213;SDS011;3648;50.614;13.830;2023-03-16T09:40:56;11.23;;;7.27;;
7213;SDS011;3648;50.614;13.830;2023-03-16T09:43:28;11.90;;;7.57;;
7213;SDS011;3648;50.614;13.830;2023-03-16T09:46:06;11.07;;;6.47;;
7213;SDS011;3648;50.614;13.830;2023-03-16T09:48:37;11.33;;;7.63;;
7213;SDS011;3648;50.614;13.830;2023-03-16T09:51:05;9.63;;;6.00;;
7213;SDS011;3648;50.614;13.830;2023-03-16T09:53:38;9.13;;;5.93;;
7213;SDS011;3648;50.614;13.830;2023-03-16T09:56:09;8.20;;;5.73;;
7213;SDS011;3648;50.614;13.830;2023-03-16T09:58:37;10.30;;;5.40;;
7213;SDS011;3648;50.614;13.830;2023-03-16T10:01:06;8.17;;;5.20;;
7213;SDS011;3648;50.614;13.830;2023-03-16T10:03:48;9.77;;;5.80;;
7213;SDS011;3648;50.614;13.830;2023-03-16T10:06:33;6.77;;;4.97;;
7213;SDS011;3648;50.614;13.830;2023-03-16T10:09:12;8.50;;;4.07;;
7213;SDS011;3648;50.614;13.830;2023-03-16T10:11:52;6.87;;;3.37;;
7213;SDS011;3648;50.614;13.830;2023-03-16T10:14:22;5.90;;;3.37;;
7213;SDS011;3648;50.614;13.830;2023-03-16T10:16:56;5.90;;;3.60;;
7213;SDS011;3648;50.614;13.830;2023-03-16T10:19:30;4.63;;;3.27;;
7213;SDS011;3648;50.614;13.830;2023-03-16T10:22:08;4.17;;;2.63;;
7213;SDS011;3648;50.614;13.830;2023-03-16T10:24:42;6.63;;;3.73;;
7213;SDS011;3648;50.614;13.830;2023-03-16T10:27:20;4.37;;;2.87;;
7213;SDS011;3648;50.614;13.830;2023-03-16T10:29:52;5.20;;;3.00;;
7213;SDS011;3648;50.614;13.830;2023-03-16T10:32:19;7.27;;;3.10;;
7213;SDS011;3648;50.614;13.830;2023-03-16T10:34:52;4.20;;;3.03;;
7213;SDS011;3648;50.614;13.830;2023-03-16T10:37:22;4.23;;;2.90;;
7213;SDS011;3648;50.614;13.830;2023-03-16T10:39:52;5.13;;;3.03;;
7213;SDS011;3648;50.614;13.830;2023-03-16T10:42:22;3.27;;;2.20;;
7213;SDS011;3648;50.614;13.830;2023-03-16T10:44:55;3.60;;;2.33;;
7213;SDS011;3648;50.614;13.830;2023-03-16T10:47:23;3.90;;;1.97;;
7213;SDS011;3648;50.614;13.830;2023-03-16T10:49:54;3.07;;;1.80;;
7213;SDS011;3648;50.614;13.830;2023-03-16T10:52:22;3.60;;;1.93;;
7213;SDS011;3648;50.614;13.830;2023-03-16T10:54:55;3.40;;;2.33;;
7213;SDS011;3648;50.614;13.830;2023-03-16T10:57:25;4.50;;;2.80;;
7213;SDS011;3648;50.614;13.830;2023-03-16T10:59:58;7.13;;;4.10;;
7213;SDS011;3648;50.614;13.830;2023-03-16T11:02:40;5.97;;;4.03;;
7213;SDS011;3648;50.614;13.830;2023-03-16T11:05:11;5.40;;;3.10;;
7213;SDS011;3648;50.614;13.830;2023-03-16T11:07:46;5.30;;;2.80;;
7213;SDS011;3648;50.614;13.830;2023-03-16T11:10:23;5.43;;;3.30;;
7213;SDS011;3648;50.614;13.830;2023-03-16T11:12:59;6.03;;;3.43;;
7213;SDS011;3648;50.614;13.830;2023-03-16T11:15:27;5.07;;;2.80;;
7213;SDS011;3648;50.614;13.830;2023-03-16T11:18:03;5.20;;;2.70;;
7213;SDS011;3648;50.614;13.830;2023-03-16T11:20:33;9.87;;;5.43;;
7213;SDS011;3648;50.614;13.830;2023-03-16T11:23:01;8.93;;;4.27;;
7213;SDS011;3648;50.614;13.830;2023-03-16T11:25:30;5.57;;;3.77;;
7213;SDS011;3648;50.614;13.830;2023-03-16T11:28:05;4.23;;;2.70;;
7213;SDS011;3648;50.614;13.830;2023-03-16T11:30:38;3.33;;;2.70;;
7213;SDS011;3648;50.614;13.830;2023-03-16T11:33:10;4.57;;;2.50;;
7213;SDS011;3648;50.614;13.830;2023-03-16T11:35:41;3.70;;;2.67;;
7213;SDS011;3648;50.614;13.830;2023-03-16T11:38:16;3.67;;;2.37;;
7213;SDS011;3648;50.614;13.830;2023-03-16T11:40:49;4.03;;;2.27;;
7213;SDS011;3648;50.614;13.830;2023-03-16T11:46:18;3.13;;;2.07;;
7213;SDS011;3648;50.614;13.830;2023-03-16T11:48:57;4.07;;;2.80;;
7213;SDS011;3648;50.614;13.830;2023-03-16T11:51:39;3.73;;;2.63;;
7213;SDS011;3648;50.614;13.830;2023-03-16T11:54:21;5.80;;;2.73;;
7213;SDS011;3648;50.614;13.830;2023-03-16T11:56:58;4.63;;;2.83;;
7213;SDS011;3648;50.614;13.830;2023-03-16T11:59:36;6.50;;;4.17;;
7213;SDS011;3648;50.614;13.830;2023-03-16T12:02:29;3.83;;;2.50;;
7213;SDS011;3648;50.614;13.830;2023-03-16T12:05:19;7.10;;;3.63;;
7213;SDS011;3648;50.614;13.830;2023-03-16T12:07:54;4.93;;;3.13;;
7213;SDS011;3648;50.614;13.830;2023-03-16T12:10:29;3.63;;;2.50;;
7213;SDS011;3648;50.614;13.830;2023-03-16T12:13:02;5.67;;;2.60;;
7213;SDS011;3648;50.614;13.830;2023-03-16T12:15:40;5.23;;;2.37;;
7213;SDS011;3648;50.614;13.830;2023-03-16T12:18:14;4.37;;;2.83;;
7213;SDS011;3648;50.614;13.830;2023-03-16T12:20:45;5.47;;;4.10;;
7213;SDS011;3648;50.614;13.830;2023-03-16T12:23:18;11.27;;;7.73;;
7213;SDS011;3648;50.614;13.830;2023-03-16T12:25:47;12.37;;;6.83;;
7213;SDS011;3648;50.614;13.830;2023-03-16T12:28:22;22.10;;;13.90;;
7213;SDS011;3648;50.614;13.830;2023-03-16T12:30:56;16.30;;;8.87;;
7213;SDS011;3648;50.614;13.830;2023-03-16T12:33:34;9.27;;;5.73;;
7213;SDS011;3648;50.614;13.830;2023-03-16T12:36:32;5.37;;;3.50;;
7213;SDS011;3648;50.614;13.830;2023-03-16T12:39:10;4.83;;;3.00;;
7213;SDS011;3648;50.614;13.830;2023-03-16T12:41:40;10.87;;;6.00;;
7213;SDS011;3648;50.614;13.830;2023-03-16T12:44:18;5.67;;;3.80;;
7213;SDS011;3648;50.614;13.830;2023-03-16T12:46:53;6.30;;;4.10;;
7213;SDS011;3648;50.614;13.830;2023-03-16T12:49:26;3.50;;;2.83;;
7213;SDS011;3648;50.614;13.830;2023-03-16T12:51:58;3.77;;;2.73;;
7213;SDS011;3648;50.614;13.830;2023-03-16T12:54:26;5.50;;;3.27;;
7213;SDS011;3648;50.614;13.830;2023-03-16T12:56:58;4.37;;;2.60;;
7213;SDS011;3648;50.614;13.830;2023-03-16T12:59:34;3.93;;;2.33;;
7213;SDS011;3648;50.614;13.830;2023-03-16T13:02:07;4.37;;;2.30;;
7213;SDS011;3648;50.614;13.830;2023-03-16T13:04:39;3.53;;;2.30;;
7213;SDS011;3648;50.614;13.830;2023-03-16T13:07:14;3.90;;;2.93;;
7213;SDS011;3648;50.614;13.830;2023-03-16T13:09:44;4.37;;;2.90;;
7213;SDS011;3648;50.614;13.830;2023-03-16T13:12:23;4.40;;;3.00;;
7213;SDS011;3648;50.614;13.830;2023-03-16T13:14:52;4.30;;;2.70;;
7213;SDS011;3648;50.614;13.830;2023-03-16T13:17:26;4.30;;;2.70;;
7213;SDS011;3648;50.614;13.830;2023-03-16T13:19:59;4.33;;;3.00;;
7213;SDS011;3648;50.614;13.830;2023-03-16T13:22:39;3.27;;;2.97;;
7213;SDS011;3648;50.614;13.830;2023-03-16T13:25:12;5.10;;;3.40;;
7213;SDS011;3648;50.614;13.830;2023-03-16T13:27:42;4.83;;;3.37;;
7213;SDS011;3648;50.614;13.830;2023-03-16T13:30:15;4.63;;;3.80;;
7213;SDS011;3648;50.614;13.830;2023-03-16T13:32:45;6.23;;;3.73;;
7213;SDS011;3648;50.614;13.830;2023-03-16T13:35:14;4.43;;;3.83;;
7213;SDS011;3648;50.614;13.830;2023-03-16T13:37:42;5.73;;;3.70;;
7213;SDS011;3648;50.614;13.830;2023-03-16T13:40:17;4.77;;;3.20;;
7213;SDS011;3648;50.614;13.830;2023-03-16T13:42:46;6.30;;;4.17;;
7213;SDS011;3648;50.614;13.830;2023-03-16T13:45:18;4.77;;;3.17;;
7213;SDS011;3648;50.614;13.830;2023-03-16T13:47:48;4.40;;;3.20;;
7213;SDS011;3648;50.614;13.830;2023-03-16T13:50:17;3.53;;;3.07;;
7213;SDS011;3648;50.614;13.830;2023-03-16T13:52:54;4.97;;;3.43;;
7213;SDS011;3648;50.614;13.830;2023-03-16T13:55:25;4.47;;;2.77;;
7213;SDS011;3648;50.614;13.830;2023-03-16T13:57:56;4.67;;;3.37;;
7213;SDS011;3648;50.614;13.830;2023-03-16T14:00:24;4.27;;;3.53;;
7213;SDS011;3648;50.614;13.830;2023-03-16T14:02:55;4.13;;;2.70;;
7213;SDS011;3648;50.614;13.830;2023-03-16T14:05:24;5.20;;;3.17;;
7213;SDS011;3648;50.614;13.830;2023-03-16T14:07:54;5.03;;;2.90;;
7213;SDS011;3648;50.614;13.830;2023-03-16T14:10:25;4.60;;;2.90;;
7213;SDS011;3648;50.614;13.830;2023-03-16T14:13:05;3.20;;;2.60;;
7213;SDS011;3648;50.614;13.830;2023-03-16T14:15:34;3.97;;;3.00;;
7213;SDS011;3648;50.614;13.830;2023-03-16T14:18:12;4.53;;;3.40;;
7213;SDS011;3648;50.614;13.830;2023-03-16T14:20:45;3.80;;;3.33;;
7213;SDS011;3648;50.614;13.830;2023-03-16T14:23:15;3.63;;;3.00;;
7213;SDS011;3648;50.614;13.830;2023-03-16T14:25:45;3.50;;;2.80;;
7213;SDS011;3648;50.614;13.830;2023-03-16T14:28:13;5.07;;;3.10;;
7213;SDS011;3648;50.614;13.830;2023-03-16T14:30:48;4.57;;;2.73;;
7213;SDS011;3648;50.614;13.830;2023-03-16T14:33:27;4.10;;;2.60;;
7213;SDS011;3648;50.614;13.830;2023-03-16T14:35:56;3.90;;;2.70;;
7213;SDS011;3648;50.614;13.830;2023-03-16T14:38:28;4.27;;;2.90;;
7213;SDS011;3648;50.614;13.830;2023-03-16T14:40:57;3.17;;;2.37;;
7213;SDS011;3648;50.614;13.830;2023-03-16T14:43:29;7.07;;;3.13;;
7213;SDS011;3648;50.614;13.830;2023-03-16T14:46:00;4.63;;;2.63;;
7213;SDS011;3648;50.614;13.830;2023-03-16T14:48:31;4.67;;;3.00;;
7213;SDS011;3648;50.614;13.830;2023-03-16T14:50:59;4.80;;;3.03;;
7213;SDS011;3648;50.614;13.830;2023-03-16T14:53:28;5.87;;;3.50;;
7213;SDS011;3648;50.614;13.830;2023-03-16T14:55:56;4.90;;;2.70;;
7213;SDS011;3648;50.614;13.830;2023-03-16T14:58:24;6.37;;;3.27;;
7213;SDS011;3648;50.614;13.830;2023-03-16T15:00:51;3.77;;;2.63;;
7213;SDS011;3648;50.614;13.830;2023-03-16T15:03:20;7.07;;;3.10;;
7213;SDS011;3648;50.614;13.830;2023-03-16T15:05:53;3.63;;;3.10;;
7213;SDS011;3648;50.614;13.830;2023-03-16T15:08:21;4.17;;;2.90;;
7213;SDS011;3648;50.614;13.830;2023-03-16T15:10:51;4.27;;;2.73;;
7213;SDS011;3648;50.614;13.830;2023-03-16T15:13:20;5.33;;;3.20;;